Time;durP1;ratioP1;P1;durP2;ratioP2;P2;SDS_P1;SDS_P2;PMS_P1;PMS_P2;Temp;Humidity;BMP_temperature;BMP_pressure;BME280_temperature;BME280_humidity;BME280_pressure;Samples;Min_cycle;Max_cycle;Signal;HPM_P1;HPM_P2
2023/06/23 00:00:37;;;;;;;;;;;;;;;;;;6280035;22;19919;-87
2023/06/23 00:03:02;;;;;;;;;;;;;;;;;;6279557;22;19980;-87
2023/06/23 00:05:28;;;;;;;;;;;;;;;;;;6279439;22;20341;-86
2023/06/23 00:07:54;;;;;;;;;;;;;;;;;;6279333;22;19983;-86
2023/06/23 00:10:20;;;;;;;;;;;;;;;;;;6279572;22;19915;-87
2023/06/23 00:12:47;;;;;;;;;;;;;;;;;;6279385;22;20292;-87
2023/06/23 00:15:13;;;;;;;;;;;;;;;;;;6279087;22;19915;-89
2023/06/23 00:17:39;;;;;;;;;;;;;;;;;;6279043;22;20350;-91
2023/06/23 00:20:13;;;;;;;;;;;;;;;;;;6278181;22;19922;-88
2023/06/23 00:22:40;;;;;;;;;;;;;;;;;;6278315;22;19954;-88
2023/06/23 00:25:06;;;;;;;;;;;;;;;;;;6279556;22;19988;-88
2023/06/23 00:27:31;;;;;;;;;;;;;;;;;;6253268;22;19914;-86
2023/06/23 00:29:57;;;;;;;;;;;;;;;;;;6279275;22;19915;-87
2023/06/23 00:32:23;;;;;;;;;;;;;;;;;;6279301;22;19938;-87
2023/06/23 00:34:49;;;;;;;;;;;;;;;;;;6279107;22;19945;-87
2023/06/23 00:37:15;;;;;;;;;;;;;;;;;;6278674;22;19914;-87
2023/06/23 00:39:41;;;;;;;;;;;;;;;;;;6279315;22;19915;-88
2023/06/23 00:42:07;;;;;;;;;;;;;;;;;;6279166;22;19915;-87
2023/06/23 00:44:33;;;;;;;;;;;;;;;;;;6278883;22;19921;-86
2023/06/23 00:46:59;;;;;;;;;;;;;;;;;;6279208;22;19975;-86
2023/06/23 00:49:25;;;;;;;;;;;;;;;;;;6279194;22;20055;-87
2023/06/23 00:51:52;;;;;;;;;;;;;;;;;;6279285;22;19937;-87
2023/06/23 00:54:18;;;;;;;;;;;;;;;;;;6279060;22;19915;-87
2023/06/23 00:56:43;;;;;;;;;;;;;;;;;;6306877;22;20320;-84
2023/06/23 00:59:09;;;;;;;;;;;;;;;;;;6279433;22;19915;-87
2023/06/23 01:01:35;;;;;;;;;;;;;;;;;;6253781;22;19975;-87
2023/06/23 01:04:01;;;;;;;;;;;;;;;;;;6278993;22;19921;-87
2023/06/23 01:06:27;;;;;;;;;;;;;;;;;;6278781;22;19919;-86
2023/06/23 01:08:54;;;;;;;;;;;;;;;;;;6253366;22;20398;-86
2023/06/23 01:11:21;;;;;;;;;;;;;;;;;;6240979;22;19915;-87
2023/06/23 01:13:46;;;;;;;;;;;;;;;;;;6278850;22;19959;-87
2023/06/23 01:16:12;;;;;;;;;;;;;;;;;;6306392;22;20339;-86
2023/06/23 01:18:38;;;;;;;;;;;;;;;;;;6278915;22;20033;-87
2023/06/23 01:21:04;;;;;;;;;;;;;;;;;;6278684;22;19915;-87
2023/06/23 01:23:30;;;;;;;;;;;;;;;;;;6306179;22;19997;-87
2023/06/23 01:25:56;;;;;;;;;;;;;;;;;;6278953;22;19922;-87
2023/06/23 01:28:22;;;;;;;;;;;;;;;;;;6278825;22;20053;-86
2023/06/23 01:30:48;;;;;;;;;;;;;;;;;;6278930;22;19971;-87
2023/06/23 01:33:15;;;;;;;;;;;;;;;;;;6279264;22;19976;-87
2023/06/23 01:35:41;;;;;;;;;;;;;;;;;;6306047;22;19915;-86
2023/06/23 01:38:07;;;;;;;;;;;;;;;;;;6278749;22;19964;-87
2023/06/23 01:40:33;;;;;;;;;;;;;;;;;;6278694;22;19915;-87
2023/06/23 01:42:58;;;;;;;;;;;;;;;;;;6306154;22;19993;-87
2023/06/23 01:45:24;;;;;;;;;;;;;;;;;;6278678;22;20006;-87
2023/06/23 01:47:50;;;;;;;;;;;;;;;;;;6278583;22;20045;-87
2023/06/23 01:50:18;;;;;;;;;;;;;;;;;;6305967;22;20033;-85
2023/06/23 01:52:44;;;;;;;;;;;;;;;;;;6253396;22;19915;-87
2023/06/23 01:55:09;;;;;;;;;;;;;;;;;;6278725;22;19951;-87
2023/06/23 01:57:35;;;;;;;;;;;;;;;;;;6252885;22;20596;-87
2023/06/23 02:00:01;;;;;;;;;;;;;;;;;;6306245;22;19915;-87
2023/06/23 02:02:27;;;;;;;;;;;;;;;;;;6278229;22;19919;-87
2023/06/23 02:04:54;;;;;;;;;;;;;;;;;;6278775;22;19975;-87
2023/06/23 02:07:20;;;;;;;;;;;;;;;;;;6306050;22;20226;-87
2023/06/23 02:09:46;;;;;;;;;;;;;;;;;;6278737;22;19921;-87
2023/06/23 02:12:12;;;;;;;;;;;;;;;;;;6253240;22;20274;-87
2023/06/23 02:14:37;;;;;;;;;;;;;;;;;;6278584;22;19925;-87
2023/06/23 02:17:03;;;;;;;;;;;;;;;;;;6278438;22;19922;-87
2023/06/23 02:19:29;;;;;;;;;;;;;;;;;;6278508;22;19998;-87
2023/06/23 02:21:55;;;;;;;;;;;;;;;;;;6278353;22;20350;-87
2023/06/23 02:24:21;;;;;;;;;;;;;;;;;;6305510;22;19918;-87
2023/06/23 02:26:47;;;;;;;;;;;;;;;;;;6306588;22;19990;-87
2023/06/23 02:29:13;;;;;;;;;;;;;;;;;;6253335;22;19915;-87
2023/06/23 02:31:39;;;;;;;;;;;;;;;;;;6278627;22;20308;-86
2023/06/23 02:34:05;;;;;;;;;;;;;;;;;;6278427;22;19915;-87
2023/06/23 02:36:31;;;;;;;;;;;;;;;;;;6278402;22;20351;-87
2023/06/23 02:38:57;;;;;;;;;;;;;;;;;;6278323;22;19915;-87
2023/06/23 02:41:23;;;;;;;;;;;;;;;;;;6278417;22;19915;-87
2023/06/23 02:43:51;;;;;;;;;;;;;;;;;;6278139;22;19962;-87
2023/06/23 02:46:17;;;;;;;;;;;;;;;;;;6278600;22;19973;-87
2023/06/23 02:48:43;;;;;;;;;;;;;;;;;;6278339;22;20260;-87
2023/06/23 02:51:09;;;;;;;;;;;;;;;;;;6280110;22;19919;-87
2023/06/23 02:53:35;;;;;;;;;;;;;;;;;;6280278;22;19966;-87
2023/06/23 02:56:01;;;;;;;;;;;;;;;;;;6280156;22;19941;-87
2023/06/23 02:58:27;;;;;;;;;;;;;;;;;;6280276;22;20348;-87
2023/06/23 03:00:53;;;;;;;;;;;;;;;;;;6254723;22;19922;-87
2023/06/23 03:03:19;;;;;;;;;;;;;;;;;;6280018;22;19969;-87
2023/06/23 03:05:45;;;;;;;;;;;;;;;;;;6307853;22;19915;-87
2023/06/23 03:08:11;;;;;;;;;;;;;;;;;;6280062;22;19919;-87
2023/06/23 03:10:37;;;;;;;;;;;;;;;;;;6307702;22;19921;-87
2023/06/23 03:13:03;;;;;;;;;;;;;;;;;;6254374;22;19915;-87
2023/06/23 03:15:29;;;;;;;;;;;;;;;;;;6280199;22;20202;-87
2023/06/23 03:17:56;;;;;;;;;;;;;;;;;;6307616;22;19914;-87
2023/06/23 03:20:24;;;;;;;;;;;;;;;;;;6279967;22;19915;-87
2023/06/23 03:22:50;;;;;;;;;;;;;;;;;;6254241;22;19918;-86
2023/06/23 03:25:16;;;;;;;;;;;;;;;;;;6280155;22;19915;-87
2023/06/23 03:27:42;;;;;;;;;;;;;;;;;;6279686;22;19986;-87
2023/06/23 03:30:08;;;;;;;;;;;;;;;;;;6307185;22;19950;-87
2023/06/23 03:32:34;;;;;;;;;;;;;;;;;;6307341;22;20289;-87
2023/06/23 03:34:59;;;;;;;;;;;;;;;;;;6280021;22;19946;-87
2023/06/23 03:37:26;;;;;;;;;;;;;;;;;;6307057;22;19985;-87
2023/06/23 03:39:52;;;;;;;;;;;;;;;;;;6279673;22;20010;-86
2023/06/23 03:42:19;;;;;;;;;;;;;;;;;;6306983;22;20014;-87
2023/06/23 03:44:46;;;;;;;;;;;;;;;;;;6279786;22;19922;-87
2023/06/23 03:47:11;;;;;;;;;;;;;;;;;;6279789;22;19993;-87
2023/06/23 03:49:37;;;;;;;;;;;;;;;;;;6279813;22;20337;-87
2023/06/23 03:52:03;;;;;;;;;;;;;;;;;;6279603;22;19991;-87
2023/06/23 03:54:29;;;;;;;;;;;;;;;;;;6279547;22;19925;-87
2023/06/23 03:56:55;;;;;;;;;;;;;;;;;;6306586;22;19919;-87
2023/06/23 03:59:21;;;;;;;;;;;;;;;;;;6254536;22;19972;-87
2023/06/23 04:01:47;;;;;;;;;;;;;;;;;;6306703;22;19915;-87
2023/06/23 04:04:13;;;;;;;;;;;;;;;;;;6307416;22;19919;-87
2023/06/23 04:06:39;;;;;;;;;;;;;;;;;;6279594;22;19923;-87
2023/06/23 04:09:04;;;;;;;;;;;;;;;;;;6279664;22;19919;-87
2023/06/23 04:11:30;;;;;;;;;;;;;;;;;;6279399;22;20024;-86
2023/06/23 04:13:56;;;;;;;;;;;;;;;;;;6306911;22;19914;-87
2023/06/23 04:16:22;;;;;;;;;;;;;;;;;;6279339;22;20282;-87
2023/06/23 04:18:48;;;;;;;;;;;;;;;;;;6307013;22;19922;-87
2023/06/23 04:21:14;;;;;;;;;;;;;;;;;;6279355;22;19918;-86
2023/06/23 04:23:40;;;;;;;;;;;;;;;;;;6253471;22;19961;-87
2023/06/23 04:26:06;;;;;;;;;;;;;;;;;;6279311;22;19990;-87
2023/06/23 04:28:33;;;;;;;;;;;;;;;;;;6279388;22;19994;-87
2023/06/23 04:30:59;;;;;;;;;;;;;;;;;;6279470;22;20355;-87
2023/06/23 04:33:26;;;;;;;;;;;;;;;;;;6306320;22;19915;-86
2023/06/23 04:35:52;;;;;;;;;;;;;;;;;;6253936;22;20237;-85
2023/06/23 04:38:17;;;;;;;;;;;;;;;;;;6279222;22;20010;-86
2023/06/23 04:40:43;;;;;;;;;;;;;;;;;;6306630;22;19961;-87
2023/06/23 04:43:12;;;;;;;;;;;;;;;;;;6253495;22;20398;-87
2023/06/23 04:45:38;;;;;;;;;;;;;;;;;;6253714;22;20321;-87
2023/06/23 04:48:04;;;;;;;;;;;;;;;;;;6279148;22;19981;-87
2023/06/23 04:50:30;;;;;;;;;;;;;;;;;;6279369;22;19990;-87
2023/06/23 04:52:56;;;;;;;;;;;;;;;;;;6306694;22;19963;-87
2023/06/23 04:55:22;;;;;;;;;;;;;;;;;;6279412;22;19915;-87
2023/06/23 04:57:48;;;;;;;;;;;;;;;;;;6279121;22;19915;-87
2023/06/23 05:00:15;;;;;;;;;;;;;;;;;;6279340;22;19925;-87
2023/06/23 05:02:41;;;;;;;;;;;;;;;;;;6254108;22;20014;-87
2023/06/23 05:05:07;;;;;;;;;;;;;;;;;;6279134;22;19998;-87
2023/06/23 05:07:35;;;;;;;;;;;;;;;;;;6230717;22;21245;-86
2023/06/23 05:10:00;;;;;;;;;;;;;;;;;;6248583;22;19915;-87
2023/06/23 05:12:26;;;;;;;;;;;;;;;;;;6247945;22;20248;-87
2023/06/23 05:14:52;;;;;;;;;;;;;;;;;;6248041;22;19915;-87
2023/06/23 05:17:18;;;;;;;;;;;;;;;;;;6261004;22;19915;-86
2023/06/23 05:19:44;;;;;;;;;;;;;;;;;;6247688;22;20350;-87
2023/06/23 05:22:11;;;;;;;;;;;;;;;;;;6247609;22;20291;-87
2023/06/23 05:24:37;;;;;;;;;;;;;;;;;;6248174;22;19919;-87
2023/06/23 05:27:06;;;;;;;;;;;;;;;;;;6222693;22;19919;-86
2023/06/23 05:29:32;;;;;;;;;;;;;;;;;;6248282;22;19915;-87
2023/06/23 05:31:58;;;;;;;;;;;;;;;;;;6248106;22;20295;-87
2023/06/23 05:34:24;;;;;;;;;;;;;;;;;;6275525;22;19915;-87
2023/06/23 05:36:50;;;;;;;;;;;;;;;;;;6248058;22;19992;-87
2023/06/23 05:39:16;;;;;;;;;;;;;;;;;;6248022;22;19916;-87
2023/06/23 05:41:42;;;;;;;;;;;;;;;;;;6248460;22;19915;-87
2023/06/23 05:44:08;;;;;;;;;;;;;;;;;;6275410;22;19920;-87
2023/06/23 05:46:34;;;;;;;;;;;;;;;;;;6275582;22;19915;-87
2023/06/23 05:49:00;;;;;;;;;;;;;;;;;;6248197;22;19916;-87
2023/06/23 05:51:26;;;;;;;;;;;;;;;;;;6275591;22;19916;-87
2023/06/23 05:53:51;;;;;;;;;;;;;;;;;;6247683;22;19915;-87
2023/06/23 05:56:17;;;;;;;;;;;;;;;;;;6274842;22;20202;-87
2023/06/23 05:58:43;;;;;;;;;;;;;;;;;;6245972;22;19915;-87
2023/06/23 06:01:09;;;;;;;;;;;;;;;;;;6247978;22;19920;-87
2023/06/23 06:03:35;;;;;;;;;;;;;;;;;;6222463;22;19926;-88
2023/06/23 06:06:01;;;;;;;;;;;;;;;;;;6247563;22;19919;-89
2023/06/23 06:08:27;;;;;;;;;;;;;;;;;;6248270;22;19915;-88
2023/06/23 06:10:53;;;;;;;;;;;;;;;;;;6247940;22;19986;-87
2023/06/23 06:13:19;;;;;;;;;;;;;;;;;;6248061;22;19959;-88
2023/06/23 06:15:44;;;;;;;;;;;;;;;;;;6247747;22;19962;-87
2023/06/23 06:18:11;;;;;;;;;;;;;;;;;;6247881;22;20357;-87
2023/06/23 06:20:37;;;;;;;;;;;;;;;;;;6247916;22;19926;-87
2023/06/23 06:23:03;;;;;;;;;;;;;;;;;;6222330;22;19920;-87
2023/06/23 06:25:29;;;;;;;;;;;;;;;;;;6276816;22;19919;-87
2023/06/23 06:27:55;;;;;;;;;;;;;;;;;;6249884;22;20290;-87
2023/06/23 06:30:21;;;;;;;;;;;;;;;;;;6250016;22;20177;-87
2023/06/23 06:32:47;;;;;;;;;;;;;;;;;;6249619;22;19967;-87
2023/06/23 06:35:12;;;;;;;;;;;;;;;;;;6249749;22;19915;-88
2023/06/23 06:37:38;;;;;;;;;;;;;;;;;;6249557;22;19915;-88
2023/06/23 06:40:04;;;;;;;;;;;;;;;;;;6224231;22;19915;-87
2023/06/23 06:42:31;;;;;;;;;;;;;;;;;;6249821;22;19915;-88
2023/06/23 06:44:57;;;;;;;;;;;;;;;;;;6277390;22;20005;-88
2023/06/23 06:47:23;;;;;;;;;;;;;;;;;;6249796;22;19930;-87
2023/06/23 06:49:49;;;;;;;;;;;;;;;;;;6249792;22;19919;-88
2023/06/23 06:52:14;;;;;;;;;;;;;;;;;;6224347;22;20073;-88
2023/06/23 06:54:40;;;;;;;;;;;;;;;;;;6249427;22;20333;-88
2023/06/23 06:57:06;;;;;;;;;;;;;;;;;;6277063;22;19922;-87
2023/06/23 06:59:32;;;;;;;;;;;;;;;;;;6249650;22;19989;-88
2023/06/23 07:01:58;;;;;;;;;;;;;;;;;;6249751;22;19921;-87
2023/06/23 07:04:24;;;;;;;;;;;;;;;;;;6223930;22;20282;-87
2023/06/23 07:06:50;;;;;;;;;;;;;;;;;;6257289;22;20225;-88
2023/06/23 07:09:16;;;;;;;;;;;;;;;;;;6254356;22;19915;-88
2023/06/23 07:11:42;;;;;;;;;;;;;;;;;;6254578;22;19915;-88
2023/06/23 07:14:08;;;;;;;;;;;;;;;;;;6254634;22;19914;-88
2023/06/23 07:16:34;;;;;;;;;;;;;;;;;;6280614;22;20375;-87
2023/06/23 07:18:59;;;;;;;;;;;;;;;;;;6280141;22;19922;-87
2023/06/23 07:21:25;;;;;;;;;;;;;;;;;;6307983;22;19922;-88
2023/06/23 07:23:51;;;;;;;;;;;;;;;;;;6280009;22;19918;-88
2023/06/23 07:26:17;;;;;;;;;;;;;;;;;;6280303;22;19922;-88
2023/06/23 07:28:43;;;;;;;;;;;;;;;;;;6254684;22;19922;-88
2023/06/23 07:31:09;;;;;;;;;;;;;;;;;;6279887;22;19918;-87
2023/06/23 07:33:35;;;;;;;;;;;;;;;;;;6279941;22;19922;-87
2023/06/23 07:36:01;;;;;;;;;;;;;;;;;;6279735;22;20542;-88
2023/06/23 07:38:27;;;;;;;;;;;;;;;;;;6280340;22;19954;-88
2023/06/23 07:40:53;;;;;;;;;;;;;;;;;;6307116;22;19953;-88
2023/06/23 07:43:20;;;;;;;;;;;;;;;;;;6279661;22;19923;-88
2023/06/23 07:45:46;;;;;;;;;;;;;;;;;;6279616;22;20341;-87
2023/06/23 07:48:12;;;;;;;;;;;;;;;;;;6279592;22;20307;-88
2023/06/23 07:50:38;;;;;;;;;;;;;;;;;;6279676;22;19921;-88
2023/06/23 07:53:04;;;;;;;;;;;;;;;;;;6279760;22;20329;-88
2023/06/23 07:55:30;;;;;;;;;;;;;;;;;;6279610;22;19919;-88
2023/06/23 07:57:56;;;;;;;;;;;;;;;;;;6306851;22;19990;-88
2023/06/23 08:00:23;;;;;;;;;;;;;;;;;;6254066;22;20403;-88
2023/06/23 08:02:49;;;;;;;;;;;;;;;;;;6279357;22;20003;-88
2023/06/23 08:05:15;;;;;;;;;;;;;;;;;;6279387;22;20309;-88
2023/06/23 08:07:41;;;;;;;;;;;;;;;;;;6279275;22;19993;-89
2023/06/23 08:10:07;;;;;;;;;;;;;;;;;;6279434;22;19914;-88
2023/06/23 08:12:32;;;;;;;;;;;;;;;;;;6307334;22;19915;-88
2023/06/23 08:14:59;;;;;;;;;;;;;;;;;;6279267;22;20248;-88
2023/06/23 08:17:24;;;;;;;;;;;;;;;;;;6279275;22;19976;-89
2023/06/23 08:19:50;;;;;;;;;;;;;;;;;;6279283;22;19915;-87
2023/06/23 08:22:16;;;;;;;;;;;;;;;;;;6306939;22;19937;-88
2023/06/23 08:24:42;;;;;;;;;;;;;;;;;;6279215;22;19919;-88
2023/06/23 08:27:08;;;;;;;;;;;;;;;;;;6253468;22;19915;-87
2023/06/23 08:29:37;;;;;;;;;;;;;;;;;;6253829;22;20355;-89
2023/06/23 08:32:03;;;;;;;;;;;;;;;;;;6253553;22;20020;-89
2023/06/23 08:34:29;;;;;;;;;;;;;;;;;;6253467;22;20000;-89
2023/06/23 08:36:54;;;;;;;;;;;;;;;;;;6279522;22;20313;-89
2023/06/23 08:39:20;;;;;;;;;;;;;;;;;;6279003;22;19922;-88
2023/06/23 08:41:46;;;;;;;;;;;;;;;;;;6306807;22;19915;-88
2023/06/23 08:44:12;;;;;;;;;;;;;;;;;;6279020;22;19918;-88
2023/06/23 08:46:38;;;;;;;;;;;;;;;;;;6278849;22;19935;-88
2023/06/23 08:49:04;;;;;;;;;;;;;;;;;;6279004;22;20279;-88
2023/06/23 08:51:30;;;;;;;;;;;;;;;;;;6278956;22;19915;-89
2023/06/23 08:53:56;;;;;;;;;;;;;;;;;;6278985;22;20297;-89
2023/06/23 08:56:22;;;;;;;;;;;;;;;;;;6278820;22;19915;-89
2023/06/23 08:58:48;;;;;;;;;;;;;;;;;;6279391;22;19915;-88
2023/06/23 09:01:13;;;;;;;;;;;;;;;;;;6278934;22;19919;-88
2023/06/23 09:03:39;;;;;;;;;;;;;;;;;;6279097;22;19926;-88
2023/06/23 09:06:05;;;;;;;;;;;;;;;;;;6253350;22;19964;-89
2023/06/23 09:08:31;;;;;;;;;;;;;;;;;;6279022;22;19980;-88
2023/06/23 09:10:57;;;;;;;;;;;;;;;;;;6278954;22;19926;-88
2023/06/23 09:13:24;;;;;;;;;;;;;;;;;;6278975;22;19922;-88
2023/06/23 09:15:50;;;;;;;;;;;;;;;;;;6278850;22;19994;-88
2023/06/23 09:18:15;;;;;;;;;;;;;;;;;;6306688;22;19960;-89
2023/06/23 09:20:41;;;;;;;;;;;;;;;;;;6306651;22;20302;-88
2023/06/23 09:23:07;;;;;;;;;;;;;;;;;;6278820;22;20267;-89
2023/06/23 09:25:33;;;;;;;;;;;;;;;;;;6306586;22;19964;-88
2023/06/23 09:27:59;;;;;;;;;;;;;;;;;;6278761;22;19927;-88
2023/06/23 09:30:25;;;;;;;;;;;;;;;;;;6279274;22;19946;-88
2023/06/23 09:32:51;;;;;;;;;;;;;;;;;;6278700;22;19915;-89
2023/06/23 09:35:17;;;;;;;;;;;;;;;;;;6278792;22;19922;-90
2023/06/23 09:37:43;;;;;;;;;;;;;;;;;;6253115;22;19946;-88
2023/06/23 09:40:09;;;;;;;;;;;;;;;;;;6278903;22;20308;-88
2023/06/23 09:42:35;;;;;;;;;;;;;;;;;;6253142;22;19986;-88
2023/06/23 09:45:01;;;;;;;;;;;;;;;;;;6278723;22;20363;-88
2023/06/23 09:47:30;;;;;;;;;;;;;;;;;;6278643;22;19919;-89
2023/06/23 09:49:56;;;;;;;;;;;;;;;;;;6306490;22;20348;-88
2023/06/23 09:52:22;;;;;;;;;;;;;;;;;;6278850;22;20018;-88
2023/06/23 09:54:47;;;;;;;;;;;;;;;;;;6279043;22;19989;-88
2023/06/23 09:57:13;;;;;;;;;;;;;;;;;;6252937;22;19990;-88
2023/06/23 09:59:39;;;;;;;;;;;;;;;;;;6254886;22;20351;-88
2023/06/23 10:02:05;;;;;;;;;;;;;;;;;;6280705;22;20025;-88
2023/06/23 10:04:31;;;;;;;;;;;;;;;;;;6280857;22;19923;-88
2023/06/23 10:06:57;;;;;;;;;;;;;;;;;;6280836;22;19965;-88
2023/06/23 10:09:23;;;;;;;;;;;;;;;;;;6255392;22;20387;-89
2023/06/23 10:11:49;;;;;;;;;;;;;;;;;;6280468;22;20025;-89
2023/06/23 10:14:15;;;;;;;;;;;;;;;;;;6254927;22;19915;-88
2023/06/23 10:16:43;;;;;;;;;;;;;;;;;;6280713;22;19915;-88
2023/06/23 10:19:09;;;;;;;;;;;;;;;;;;6255136;22;19925;-88
2023/06/23 10:21:35;;;;;;;;;;;;;;;;;;6280615;22;20200;-87
2023/06/23 10:24:01;;;;;;;;;;;;;;;;;;6280529;22;19919;-88
2023/06/23 10:26:27;;;;;;;;;;;;;;;;;;6280303;22;19915;-88
2023/06/23 10:28:52;;;;;;;;;;;;;;;;;;6280549;22;19971;-88
2023/06/23 10:31:18;;;;;;;;;;;;;;;;;;6308370;22;19923;-88
2023/06/23 10:33:44;;;;;;;;;;;;;;;;;;6308487;22;19942;-88
2023/06/23 10:36:10;;;;;;;;;;;;;;;;;;6280600;22;20162;-89
2023/06/23 10:38:36;;;;;;;;;;;;;;;;;;6308198;22;19915;-88
2023/06/23 10:41:02;;;;;;;;;;;;;;;;;;6307868;22;19922;-88
2023/06/23 10:43:29;;;;;;;;;;;;;;;;;;6280398;22;19919;-88
2023/06/23 10:45:55;;;;;;;;;;;;;;;;;;6254710;22;19922;-89
2023/06/23 10:48:21;;;;;;;;;;;;;;;;;;6280415;22;19914;-88
2023/06/23 10:50:47;;;;;;;;;;;;;;;;;;6308182;22;20336;-88
2023/06/23 10:53:13;;;;;;;;;;;;;;;;;;6280624;22;19934;-88
2023/06/23 10:55:39;;;;;;;;;;;;;;;;;;6280263;22;19919;-88
2023/06/23 10:58:05;;;;;;;;;;;;;;;;;;6280322;22;20332;-88
2023/06/23 11:00:31;;;;;;;;;;;;;;;;;;6280245;22;19915;-88
2023/06/23 11:02:57;;;;;;;;;;;;;;;;;;6254520;22;19926;-88
2023/06/23 11:05:23;;;;;;;;;;;;;;;;;;6280313;22;19914;-89
2023/06/23 11:07:49;;;;;;;;;;;;;;;;;;6254414;22;20326;-88
2023/06/23 11:10:14;;;;;;;;;;;;;;;;;;6280080;22;19919;-88
2023/06/23 11:12:42;;;;;;;;;;;;;;;;;;6280238;22;19938;-88
2023/06/23 11:15:23;;;;;;;;;;;;;;;;;;6280172;22;19922;-88
2023/06/23 11:17:49;;;;;;;;;;;;;;;;;;6280226;22;20027;-87
2023/06/23 11:20:15;;;;;;;;;;;;;;;;;;6280179;22;19919;-88
2023/06/23 11:22:41;;;;;;;;;;;;;;;;;;6279948;22;19922;-88
2023/06/23 11:25:07;;;;;;;;;;;;;;;;;;6280137;22;19915;-88
2023/06/23 11:27:33;;;;;;;;;;;;;;;;;;6279997;22;19921;-89
2023/06/23 11:29:59;;;;;;;;;;;;;;;;;;6280124;22;19990;-88
2023/06/23 11:32:25;;;;;;;;;;;;;;;;;;6254319;22;19960;-88
2023/06/23 11:34:51;;;;;;;;;;;;;;;;;;6280027;22;20036;-87
2023/06/23 11:37:17;;;;;;;;;;;;;;;;;;6279925;22;20212;-88
2023/06/23 11:39:43;;;;;;;;;;;;;;;;;;6279968;22;19993;-88
2023/06/23 11:42:09;;;;;;;;;;;;;;;;;;6254406;22;20148;-88
2023/06/23 11:44:36;;;;;;;;;;;;;;;;;;6254095;22;20428;-88
2023/06/23 11:47:02;;;;;;;;;;;;;;;;;;6307634;22;19915;-88
2023/06/23 11:49:28;;;;;;;;;;;;;;;;;;6307531;22;19915;-87
2023/06/23 11:51:54;;;;;;;;;;;;;;;;;;6279776;22;19914;-88
2023/06/23 11:54:22;;;;;;;;;;;;;;;;;;6280032;22;19915;-88
2023/06/23 11:56:48;;;;;;;;;;;;;;;;;;6254765;22;19989;-88
2023/06/23 11:59:14;;;;;;;;;;;;;;;;;;6307443;22;19966;-88
2023/06/23 12:01:40;;;;;;;;;;;;;;;;;;6280270;22;20244;-88
2023/06/23 12:04:06;;;;;;;;;;;;;;;;;;6306938;22;19919;-88
2023/06/23 12:06:33;;;;;;;;;;;;;;;;;;6279250;22;19918;-88
2023/06/23 12:08:59;;;;;;;;;;;;;;;;;;6279572;22;20062;-88
2023/06/23 12:11:25;;;;;;;;;;;;;;;;;;6280051;22;19915;-88
2023/06/23 12:13:51;;;;;;;;;;;;;;;;;;6279447;22;19986;-87
2023/06/23 12:16:18;;;;;;;;;;;;;;;;;;6279550;22;19964;-87
2023/06/23 12:18:44;;;;;;;;;;;;;;;;;;6279372;22;19919;-88
2023/06/23 12:21:10;;;;;;;;;;;;;;;;;;6279286;22;19926;-88
2023/06/23 12:23:36;;;;;;;;;;;;;;;;;;6306442;22;19919;-88
2023/06/23 12:26:01;;;;;;;;;;;;;;;;;;6253849;22;19953;-87
2023/06/23 12:28:28;;;;;;;;;;;;;;;;;;6279355;22;19915;-88
2023/06/23 12:30:54;;;;;;;;;;;;;;;;;;6279616;22;20333;-88
2023/06/23 12:33:20;;;;;;;;;;;;;;;;;;6279447;22;19964;-88
2023/06/23 12:35:46;;;;;;;;;;;;;;;;;;6279411;22;19978;-88
2023/06/23 12:38:12;;;;;;;;;;;;;;;;;;6253762;22;20242;-88
2023/06/23 12:40:42;;;;;;;;;;;;;;;;;;6279331;22;19919;-87
2023/06/23 12:43:08;;;;;;;;;;;;;;;;;;6279527;22;19966;-88
2023/06/23 12:45:34;;;;;;;;;;;;;;;;;;6279294;22;19915;-87
2023/06/23 12:48:01;;;;;;;;;;;;;;;;;;6306621;22;19934;-88
2023/06/23 12:50:27;;;;;;;;;;;;;;;;;;6279285;22;20048;-88
2023/06/23 12:52:52;;;;;;;;;;;;;;;;;;6253861;22;20343;-88
2023/06/23 12:55:26;;;;;;;;;;;;;;;;;;5110213;27;19936;-87
2023/06/23 12:57:52;;;;;;;;;;;;;;;;;;5108822;28;19931;-86
2023/06/23 13:00:18;;;;;;;;;;;;;;;;;;5108815;28;19974;-87
2023/06/23 13:02:43;;;;;;;;;;;;;;;;;;5109955;28;19920;-86
2023/06/23 13:05:09;;;;;;;;;;;;;;;;;;5108625;28;19920;-87
2023/06/23 13:07:35;;;;;;;;;;;;;;;;;;5110080;28;20007;-87
2023/06/23 13:10:02;;;;;;;;;;;;;;;;;;5091680;28;19943;-87
2023/06/23 13:12:28;;;;;;;;;;;;;;;;;;5108561;28;19963;-87
2023/06/23 13:14:53;;;;;;;;;;;;;;;;;;5091639;28;19962;-87
2023/06/23 13:17:19;;;;;;;;;;;;;;;;;;5108345;28;20015;-87
2023/06/23 13:19:45;;;;;;;;;;;;;;;;;;5108494;28;19999;-87
2023/06/23 13:22:11;;;;;;;;;;;;;;;;;;5108347;28;19920;-87
2023/06/23 13:24:39;;;;;;;;;;;;;;;;;;5108663;28;20068;-87
2023/06/23 13:27:08;;;;;;;;;;;;;;;;;;5091199;28;19927;-87
2023/06/23 13:29:33;;;;;;;;;;;;;;;;;;5091181;28;19920;-86
2023/06/23 13:31:59;;;;;;;;;;;;;;;;;;5108175;28;20287;-86
2023/06/23 13:34:25;;;;;;;;;;;;;;;;;;5108363;28;19939;-87
2023/06/23 13:36:51;;;;;;;;;;;;;;;;;;5108140;28;20256;-87
2023/06/23 13:39:17;;;;;;;;;;;;;;;;;;5108077;28;19920;-87
2023/06/23 13:41:43;;;;;;;;;;;;;;;;;;5108042;28;19998;-86
2023/06/23 13:44:09;;;;;;;;;;;;;;;;;;5108030;28;20396;-87
2023/06/23 13:46:35;;;;;;;;;;;;;;;;;;5108144;28;20011;-87
2023/06/23 13:49:01;;;;;;;;;;;;;;;;;;5109506;28;20007;-87
2023/06/23 13:51:28;;;;;;;;;;;;;;;;;;5107924;28;20305;-87
2023/06/23 13:53:54;;;;;;;;;;;;;;;;;;5090774;28;19932;-87
2023/06/23 13:56:20;;;;;;;;;;;;;;;;;;5107875;28;20003;-87
2023/06/23 13:58:46;;;;;;;;;;;;;;;;;;5109027;28;20387;-87
2023/06/23 14:01:12;;;;;;;;;;;;;;;;;;5109101;28;19927;-87
2023/06/23 14:03:38;;;;;;;;;;;;;;;;;;5107755;28;19947;-87
2023/06/23 14:06:04;;;;;;;;;;;;;;;;;;5099367;28;19927;-87
2023/06/23 14:08:30;;;;;;;;;;;;;;;;;;5093827;28;19920;-86
2023/06/23 14:10:56;;;;;;;;;;;;;;;;;;5077166;28;19920;-87
2023/06/23 14:13:22;;;;;;;;;;;;;;;;;;5093824;28;20267;-87
2023/06/23 14:15:48;;;;;;;;;;;;;;;;;;5093659;28;19926;-87
2023/06/23 14:18:14;;;;;;;;;;;;;;;;;;5093748;28;19928;-86
2023/06/23 14:20:40;;;;;;;;;;;;;;;;;;5093749;28;19920;-87
2023/06/23 14:23:06;;;;;;;;;;;;;;;;;;5093625;28;19920;-87
2023/06/23 14:25:32;;;;;;;;;;;;;;;;;;5093962;28;19932;-87
2023/06/23 14:27:58;;;;;;;;;;;;;;;;;;5093765;28;20394;-87
2023/06/23 14:30:24;;;;;;;;;;;;;;;;;;5094855;28;19920;-87
2023/06/23 14:32:50;;;;;;;;;;;;;;;;;;5076727;28;19920;-87
2023/06/23 14:35:16;;;;;;;;;;;;;;;;;;5093347;28;20367;-87
2023/06/23 14:37:42;;;;;;;;;;;;;;;;;;5076452;28;19927;-87
2023/06/23 14:40:09;;;;;;;;;;;;;;;;;;5093285;28;19920;-87
2023/06/23 14:42:35;;;;;;;;;;;;;;;;;;5076594;28;19920;-87
2023/06/23 14:45:01;;;;;;;;;;;;;;;;;;5076421;28;20393;-87
2023/06/23 14:47:27;;;;;;;;;;;;;;;;;;5093208;28;19927;-87
2023/06/23 14:49:55;;;;;;;;;;;;;;;;;;5093145;28;20394;-87
2023/06/23 14:52:21;;;;;;;;;;;;;;;;;;5076284;28;19920;-87
2023/06/23 14:54:47;;;;;;;;;;;;;;;;;;5092755;28;20299;-87
2023/06/23 14:57:13;;;;;;;;;;;;;;;;;;5076171;28;20294;-87
2023/06/23 14:59:38;;;;;;;;;;;;;;;;;;5075865;28;19926;-86
2023/06/23 15:02:04;;;;;;;;;;;;;;;;;;5093259;28;19928;-86
2023/06/23 15:04:30;;;;;;;;;;;;;;;;;;5092939;28;19942;-87
2023/06/23 15:06:56;;;;;;;;;;;;;;;;;;5076228;28;19927;-87
2023/06/23 15:09:22;;;;;;;;;;;;;;;;;;5092934;28;20360;-87
2023/06/23 15:11:51;;;;;;;;;;;;;;;;;;5093901;28;19931;-87
2023/06/23 15:14:17;;;;;;;;;;;;;;;;;;5092434;28;20371;-87
2023/06/23 15:16:43;;;;;;;;;;;;;;;;;;5074900;28;19927;-87
2023/06/23 15:19:08;;;;;;;;;;;;;;;;;;5092390;28;19921;-87
2023/06/23 15:21:34;;;;;;;;;;;;;;;;;;5092876;28;19927;-87
2023/06/23 15:24:00;;;;;;;;;;;;;;;;;;5094011;28;19920;-87
2023/06/23 15:26:26;;;;;;;;;;;;;;;;;;5092289;28;19919;-87
2023/06/23 15:28:52;;;;;;;;;;;;;;;;;;5093845;28;19920;-87
2023/06/23 15:31:18;;;;;;;;;;;;;;;;;;5092429;28;19930;-87
2023/06/23 15:33:44;;;;;;;;;;;;;;;;;;5092321;28;19928;-87
2023/06/23 15:36:10;;;;;;;;;;;;;;;;;;5092084;28;20422;-86
2023/06/23 15:38:36;;;;;;;;;;;;;;;;;;5093513;28;19978;-87
2023/06/23 15:41:04;;;;;;;;;;;;;;;;;;5092114;28;20371;-87
2023/06/23 15:43:30;;;;;;;;;;;;;;;;;;5075304;28;19920;-86
2023/06/23 15:45:56;;;;;;;;;;;;;;;;;;5092046;28;19920;-87
2023/06/23 15:48:22;;;;;;;;;;;;;;;;;;5075134;28;19943;-87
2023/06/23 15:50:48;;;;;;;;;;;;;;;;;;5092103;28;20332;-86
2023/06/23 15:53:14;;;;;;;;;;;;;;;;;;5093879;28;20403;-87
2023/06/23 15:55:40;;;;;;;;;;;;;;;;;;5112151;28;19924;-87
2023/06/23 15:58:06;;;;;;;;;;;;;;;;;;5112106;28;20401;-86
2023/06/23 16:00:32;;;;;;;;;;;;;;;;;;5112231;28;19931;-87
2023/06/23 16:02:58;;;;;;;;;;;;;;;;;;5112171;28;19981;-87
2023/06/23 16:05:24;;;;;;;;;;;;;;;;;;5113158;28;20462;-87
2023/06/23 16:07:50;;;;;;;;;;;;;;;;;;5111994;28;19927;-87
2023/06/23 16:10:15;;;;;;;;;;;;;;;;;;5111867;28;20002;-87
2023/06/23 16:12:41;;;;;;;;;;;;;;;;;;5113160;28;20276;-87
2023/06/23 16:15:07;;;;;;;;;;;;;;;;;;5111950;28;20010;-87
2023/06/23 16:17:33;;;;;;;;;;;;;;;;;;5111744;28;19961;-86
2023/06/23 16:19:59;;;;;;;;;;;;;;;;;;5111909;28;19970;-86
2023/06/23 16:22:25;;;;;;;;;;;;;;;;;;5111991;28;19920;-87
2023/06/23 16:24:51;;;;;;;;;;;;;;;;;;5111577;28;19932;-87
2023/06/23 16:27:17;;;;;;;;;;;;;;;;;;5111522;28;19926;-87
2023/06/23 16:29:43;;;;;;;;;;;;;;;;;;5111420;28;19920;-87
2023/06/23 16:32:09;;;;;;;;;;;;;;;;;;5111554;28;19920;-87
2023/06/23 16:34:35;;;;;;;;;;;;;;;;;;5111597;28;20007;-87
2023/06/23 16:37:01;;;;;;;;;;;;;;;;;;5111791;28;20290;-87